»·PEaware :: N751LU M94-S36

N751LU :: M94-S36

FLIGHT INFORMATION

Flight Status: Arrived
Operator: Privately registered:
United States
More flights under this callsign
Pilot: Ewen S. (18928)
Aircraft: Unknown
(RV10)
More flights by this aircraft type
Origin: M94 Desert Aire
United States
Destination: S36 Norman Grier Field
United States
More flights between these airports :: More routes between these airports
Route:
File this flight plan on PilotEdge
Remarks: ELN
Altitude:
(Current/Filed)
8,500ft
Speed:
(Current/Filed)
145kts
Departed: 03-May-20 11:12 AM
Arrived: 03-May-20 12:01 PM
Distance/Time
Traveled:
97nm/0:49
Distance/Time
To Go:
Arrived

Flight Plot

Page will automatically refresh every two minutes.

Flight plan parsing failed; only flown route is shown


Map Options




Map Legend


Flown Route
Filed Route
Departure Airport
Arrival Airport
Navaid (VOR, NDB)
Fix

Horizontal Profiles

Position Reports

Time Latitude Longitude Heading Altitude Ground
Speed
03-May-20 11:06 46.688729 -119.926772 115 549ft 0kts
03-May-20 11:07 46.688729 -119.926772 115 549ft 0kts
03-May-20 11:08 46.688559 -119.925386 118 553ft 22kts
03-May-20 11:09 46.686364 -119.918900 114 574ft 16kts
03-May-20 11:10 46.684745 -119.914010 119 590ft 0kts
03-May-20 11:11 46.692605 -119.931571 322 1295ft 95kts
03-May-20 11:12 46.716677 -119.916516 24 2911ft 108kts
03-May-20 11:13 46.745142 -119.906642 2 4606ft 105kts
03-May-20 11:14 46.774171 -119.899681 0 6291ft 107kts
03-May-20 11:15 46.803517 -119.892866 0 7913ft 108kts
03-May-20 11:16 46.839465 -119.884489 3 8492ft 162kts
03-May-20 11:17 46.870933 -119.915098 291 8475ft 157kts
03-May-20 11:18 46.887975 -119.974097 289 8493ft 156kts
03-May-20 11:19 46.904684 -120.033008 290 8509ft 158kts
03-May-20 11:20 46.920529 -120.084897 309 8506ft 161kts
03-May-20 11:21 46.955050 -120.127098 290 8509ft 158kts
03-May-20 11:22 46.967669 -120.189020 285 8508ft 158kts
03-May-20 11:23 46.980777 -120.250963 285 8509ft 158kts
03-May-20 11:24 46.993794 -120.312749 285 8509ft 158kts
03-May-20 11:25 47.006784 -120.374793 285 8508ft 158kts
03-May-20 11:26 47.019768 -120.436653 285 8508ft 159kts
03-May-20 11:27 47.032376 -120.499011 284 8508ft 159kts
03-May-20 11:28 47.044710 -120.561435 284 8508ft 159kts
03-May-20 11:29 47.057094 -120.624284 284 8508ft 159kts
03-May-20 11:30 47.069454 -120.687237 283 8509ft 159kts
03-May-20 11:31 47.081852 -120.750540 283 8509ft 159kts
03-May-20 11:32 47.094166 -120.813644 283 8509ft 159kts
03-May-20 11:33 47.106465 -120.876604 283 8517ft 159kts
03-May-20 11:34 47.118936 -120.941174 282 8481ft 163kts
03-May-20 11:35 47.131549 -121.006926 284 7714ft 164kts
03-May-20 11:36 47.143433 -121.068473 282 6827ft 149kts
03-May-20 11:37 47.154321 -121.124878 280 6498ft 123kts
03-May-20 11:38 47.163669 -121.174032 283 6508ft 124kts
03-May-20 11:39 47.172995 -121.222618 286 6470ft 121kts
03-May-20 11:40 47.182880 -121.274698 286 6494ft 146kts
03-May-20 11:41 47.194132 -121.334031 283 6492ft 150kts
03-May-20 11:42 47.205489 -121.394385 282 6488ft 151kts
03-May-20 11:43 47.216961 -121.454142 283 6499ft 151kts
03-May-20 11:44 47.228234 -121.514771 283 6496ft 152kts
03-May-20 11:45 47.239663 -121.575629 281 6491ft 154kts
03-May-20 11:46 47.250933 -121.635698 282 6497ft 152kts
03-May-20 11:47 47.262100 -121.695684 280 6487ft 149kts
03-May-20 11:48 47.273277 -121.756226 279 6477ft 139kts
03-May-20 11:49 47.282416 -121.805569 281 5720ft 113kts
03-May-20 11:50 47.290594 -121.849875 282 4697ft 110kts
03-May-20 11:51 47.298346 -121.891931 279 4492ft 115kts
03-May-20 11:52 47.308591 -121.947739 281 3523ft 152kts
03-May-20 11:53 47.332387 -122.001630 304 2543ft 157kts
03-May-20 11:54 47.357099 -122.050063 304 2323ft 155kts
03-May-20 11:55 47.387214 -122.098381 342 1574ft 155kts
03-May-20 11:56 47.407257 -122.118158 254 1502ft 63kts
03-May-20 11:57 47.388180 -122.113946 174 1539ft 81kts
03-May-20 11:58 47.363440 -122.108989 176 1146ft 97kts
03-May-20 11:59 47.340585 -122.104360 170 481ft 75kts
03-May-20 12:00 47.337148 -122.103262 350 476ft 19kts
03-May-20 12:01 47.337806 -122.103226 28 476ft 0kts
03-May-20 12:02 47.337806 -122.103226 28 476ft 0kts
03-May-20 12:03 47.337806 -122.103226 28 476ft 0kts
03-May-20 12:04 47.337806 -122.103226 28 476ft 0kts
03-May-20 12:05 47.337806 -122.103226 28 476ft 0kts
03-May-20 12:06 47.337806 -122.103226 28 476ft 0kts
03-May-20 12:07 47.337806 -122.103226 28 476ft 0kts
03-May-20 12:08 47.337806 -122.103226 28 476ft 0kts
03-May-20 12:09 47.337806 -122.103226 28 476ft 0kts
03-May-20 12:10 47.337806 -122.103226 28 476ft 0kts
03-May-20 12:11 47.337806 -122.103226 28 476ft 0kts
03-May-20 12:12 47.337806 -122.103226 28 476ft 0kts

Navigation Log

Ident Type
Flight plan parsing failed, navigation log unavailable